createdAt,value
2023-02-16T00:01:52.087Z,2.67
2023-02-16T00:04:27.876Z,2.27
2023-02-16T00:07:01.578Z,2.25
2023-02-16T00:09:35.112Z,2.10
2023-02-16T00:12:34.701Z,2.45
2023-02-16T00:15:19.270Z,1.90
2023-02-16T00:17:53.251Z,1.70
2023-02-16T00:20:27.448Z,2.10
2023-02-16T00:23:00.969Z,2.35
2023-02-16T00:25:34.375Z,1.65
2023-02-16T00:28:10.983Z,1.98
2023-02-16T00:30:44.595Z,2.10
2023-02-16T00:33:21.292Z,1.77
2023-02-16T00:35:54.919Z,2.40
2023-02-16T00:38:28.396Z,1.98
2023-02-16T00:41:02.301Z,2.15
2023-02-16T00:43:35.827Z,1.82
2023-02-16T00:46:10.400Z,1.95
2023-02-16T00:48:45.283Z,1.82
2023-02-16T00:51:25.929Z,2.17
2023-02-16T00:53:54.126Z,2.00
2023-02-16T00:56:27.588Z,1.90
2023-02-16T00:59:02.057Z,2.05
2023-02-16T01:01:37.105Z,2.00
2023-02-16T01:04:16.887Z,2.33
2023-02-16T01:07:07.932Z,2.17
2023-02-16T01:09:59.138Z,2.92
2023-02-16T01:12:35.060Z,2.25
2023-02-16T01:15:14.404Z,2.05
2023-02-16T01:20:22.976Z,2.55
2023-02-16T01:22:56.513Z,2.60
2023-02-16T01:25:29.835Z,2.87
2023-02-16T01:28:03.099Z,2.27
2023-02-16T01:30:36.619Z,2.65
2023-02-16T01:33:14.949Z,2.15
2023-02-16T01:35:48.605Z,3.10
2023-02-16T01:38:24.055Z,2.67
2023-02-16T01:41:04.149Z,2.37
2023-02-16T01:43:42.377Z,2.70
2023-02-16T01:46:18.817Z,3.62
2023-02-16T01:48:52.305Z,2.55
2023-02-16T01:51:28.506Z,2.87
2023-02-16T01:54:04.844Z,2.90
2023-02-16T01:56:41.239Z,3.30
2023-02-16T01:59:18.486Z,2.40
2023-02-16T02:01:56.792Z,2.70
2023-02-16T02:04:51.112Z,2.30
2023-02-16T02:07:27.626Z,2.45
2023-02-16T02:10:05.269Z,2.50
2023-02-16T02:12:44.622Z,2.17
2023-02-16T02:15:20.977Z,2.00
2023-02-16T02:17:54.555Z,2.30
2023-02-16T02:20:50.711Z,2.20
2023-02-16T02:23:40.710Z,2.62
2023-02-16T02:26:53.106Z,2.27
2023-02-16T02:29:58.514Z,2.47
2023-02-16T02:32:42.883Z,2.25
2023-02-16T02:35:24.518Z,2.15
2023-02-16T02:38:01.126Z,2.30
2023-02-16T02:40:38.875Z,2.92
2023-02-16T02:43:17.196Z,2.22
2023-02-16T02:45:53.381Z,2.30
2023-02-16T02:48:28.408Z,2.80
2023-02-16T02:51:21.440Z,2.33
2023-02-16T02:54:16.472Z,2.25
2023-02-16T02:57:10.563Z,2.62
2023-02-16T03:00:04.735Z,2.25
2023-02-16T03:02:40.079Z,2.50
2023-02-16T03:05:16.542Z,2.17
2023-02-16T03:07:52.567Z,2.25
2023-02-16T03:10:45.476Z,1.80
2023-02-16T03:13:21.949Z,2.10
2023-02-16T03:15:57.549Z,2.27
2023-02-16T03:18:50.444Z,2.20
2023-02-16T03:21:42.283Z,1.72
2023-02-16T03:24:36.326Z,2.10
2023-02-16T03:27:29.115Z,2.05
2023-02-16T03:30:05.115Z,1.95
2023-02-16T03:32:39.143Z,2.15
2023-02-16T03:35:13.172Z,2.25
2023-02-16T03:37:47.078Z,2.00
2023-02-16T03:40:30.155Z,2.15
2023-02-16T03:43:05.796Z,2.60
2023-02-16T03:45:41.659Z,2.50
2023-02-16T03:48:15.427Z,2.75
2023-02-16T03:50:48.943Z,2.85
2023-02-16T03:53:22.650Z,2.83
2023-02-16T03:55:56.275Z,3.25
2023-02-16T03:58:29.703Z,3.00
2023-02-16T04:01:03.544Z,2.77
2023-02-16T04:03:37.240Z,3.30
2023-02-16T04:06:11.107Z,2.90
2023-02-16T04:08:44.929Z,3.17
2023-02-16T04:11:40.478Z,3.33
2023-02-16T04:14:14.175Z,3.20
2023-02-16T04:16:47.726Z,3.25
2023-02-16T04:19:21.469Z,2.55
2023-02-16T04:21:54.944Z,3.12
2023-02-16T04:24:28.388Z,2.42
2023-02-16T04:27:01.707Z,2.98
2023-02-16T04:29:36.877Z,3.05
2023-02-16T04:32:10.784Z,3.17
2023-02-16T04:34:44.286Z,2.85
2023-02-16T04:37:17.703Z,3.10
2023-02-16T04:39:51.109Z,3.05
2023-02-16T04:42:24.675Z,2.70
2023-02-16T04:44:58.112Z,3.40
2023-02-16T04:47:31.470Z,2.83
2023-02-16T04:50:04.908Z,2.90
2023-02-16T04:52:39.173Z,2.95
2023-02-16T04:55:12.768Z,3.37
2023-02-16T04:57:46.750Z,3.80
2023-02-16T05:00:22.061Z,2.83
2023-02-16T05:02:55.476Z,3.42
2023-02-16T05:05:28.843Z,4.17
2023-02-16T05:08:02.607Z,5.12
2023-02-16T05:10:35.730Z,3.60
2023-02-16T05:13:28.341Z,3.85
2023-02-16T05:16:02.095Z,3.83
2023-02-16T05:18:36.035Z,4.92
2023-02-16T05:21:27.279Z,6.03
2023-02-16T05:24:01.449Z,5.20
2023-02-16T05:26:35.672Z,4.85
2023-02-16T05:29:09.749Z,5.12
2023-02-16T05:31:43.238Z,4.62
2023-02-16T05:34:16.924Z,5.95
2023-02-16T05:36:50.437Z,4.67
2023-02-16T05:39:24.649Z,7.15
2023-02-16T05:41:58.161Z,5.30
2023-02-16T05:44:31.313Z,5.72
2023-02-16T05:47:04.937Z,4.33
2023-02-16T05:49:38.560Z,4.35
2023-02-16T05:52:12.250Z,3.45
2023-02-16T05:54:45.371Z,4.03
2023-02-16T05:57:18.862Z,3.80
2023-02-16T05:59:54.716Z,3.50
2023-02-16T06:02:28.246Z,3.02
2023-02-16T06:05:01.821Z,2.98
2023-02-16T06:07:35.603Z,3.40
2023-02-16T06:10:10.926Z,3.45
2023-02-16T06:12:44.988Z,4.22
2023-02-16T06:15:18.883Z,5.08
2023-02-16T06:17:52.598Z,3.90
2023-02-16T06:20:26.185Z,3.90
2023-02-16T06:22:59.691Z,4.33
2023-02-16T06:25:32.883Z,3.70
2023-02-16T06:28:06.696Z,3.60
2023-02-16T06:30:40.222Z,2.52
2023-02-16T06:33:14.807Z,3.12
2023-02-16T06:35:48.388Z,3.20
2023-02-16T06:38:21.855Z,3.62
2023-02-16T06:40:55.854Z,3.10
2023-02-16T06:43:30.889Z,3.12
2023-02-16T06:46:04.916Z,2.60
2023-02-16T06:48:38.327Z,3.08
2023-02-16T06:51:11.615Z,2.37
2023-02-16T06:53:46.840Z,4.50
2023-02-16T06:56:20.232Z,2.58
2023-02-16T06:58:53.669Z,2.55
2023-02-16T07:01:27.327Z,2.25
2023-02-16T07:04:01.190Z,2.80
2023-02-16T07:06:35.215Z,2.52
2023-02-16T07:09:10.636Z,20.20
2023-02-16T07:11:44.232Z,3.33
2023-02-16T07:14:17.703Z,2.72
2023-02-16T07:16:53.422Z,2.77
2023-02-16T07:19:27.229Z,2.50
2023-02-16T07:22:00.791Z,3.22
2023-02-16T07:24:34.627Z,2.80
2023-02-16T07:27:08.788Z,2.90
2023-02-16T07:29:42.407Z,3.52
2023-02-16T07:32:15.880Z,2.87
2023-02-16T07:34:49.751Z,3.30
2023-02-16T07:37:23.401Z,3.25
2023-02-16T07:39:56.766Z,2.95
2023-02-16T07:42:33.876Z,2.90
2023-02-16T07:45:10.752Z,2.80
2023-02-16T07:47:44.226Z,2.20
2023-02-16T07:50:17.761Z,2.27
2023-02-16T07:52:51.595Z,2.20
2023-02-16T07:55:24.981Z,2.42
2023-02-16T07:57:58.604Z,5.90
2023-02-16T08:00:32.124Z,14.00
2023-02-16T08:03:06.127Z,4.90
2023-02-16T08:05:39.448Z,6.95
2023-02-16T08:08:12.874Z,2.77
2023-02-16T08:10:46.400Z,3.65
2023-02-16T08:13:20.054Z,8.05
2023-02-16T08:15:53.459Z,6.12
2023-02-16T08:18:26.933Z,5.05
2023-02-16T08:21:04.742Z,2.60
2023-02-16T08:23:35.184Z,2.62
2023-02-16T08:26:12.415Z,2.15
2023-02-16T08:28:47.165Z,1.70
2023-02-16T08:31:23.379Z,2.35
2023-02-16T08:33:58.067Z,1.90
2023-02-16T08:36:34.086Z,2.02
2023-02-16T08:39:12.137Z,2.12
2023-02-16T08:41:49.984Z,1.52
2023-02-16T08:46:57.546Z,2.20
2023-02-16T08:49:31.311Z,2.02
2023-02-16T08:52:05.528Z,2.33
2023-02-16T08:54:38.807Z,2.37
2023-02-16T08:57:12.233Z,2.58
2023-02-16T08:59:45.377Z,2.20
2023-02-16T09:02:18.733Z,2.22
2023-02-16T09:04:52.932Z,1.98
2023-02-16T09:07:26.307Z,2.20
2023-02-16T09:09:59.863Z,1.80
2023-02-16T09:12:36.805Z,2.30
2023-02-16T09:15:12.214Z,2.58
2023-02-16T09:17:46.703Z,2.12
2023-02-16T09:20:21.441Z,2.17
2023-02-16T09:22:55.240Z,2.37
2023-02-16T09:25:28.663Z,2.00
2023-02-16T09:28:02.217Z,1.82
2023-02-16T09:30:36.358Z,2.00
2023-02-16T09:33:10.077Z,2.10
2023-02-16T09:35:43.710Z,2.35
2023-02-16T09:38:17.899Z,1.90
2023-02-16T09:40:51.490Z,1.92
2023-02-16T09:43:30.047Z,1.65
2023-02-16T09:46:04.728Z,1.90
2023-02-16T09:48:42.935Z,2.08
2023-02-16T09:51:21.001Z,1.95
2023-02-16T09:53:58.292Z,2.12
2023-02-16T09:56:35.144Z,2.62
2023-02-16T09:59:12.851Z,2.20
2023-02-16T10:04:28.194Z,2.25
2023-02-16T10:07:08.249Z,2.20
2023-02-16T10:09:43.988Z,2.47
2023-02-16T10:12:20.507Z,2.77
2023-02-16T10:14:56.394Z,2.20
2023-02-16T10:17:32.865Z,2.12
2023-02-16T10:20:10.355Z,2.40
2023-02-16T10:22:47.493Z,2.30
2023-02-16T10:25:24.309Z,1.87
2023-02-16T10:28:01.822Z,2.30
2023-02-16T10:30:36.883Z,2.52
2023-02-16T10:33:14.507Z,2.42
2023-02-16T10:35:49.964Z,2.10
2023-02-16T10:38:27.029Z,2.55
2023-02-16T10:41:03.420Z,2.83
2023-02-16T10:43:43.482Z,2.17
2023-02-16T10:46:20.862Z,2.30
2023-02-16T10:51:31.824Z,2.33
2023-02-16T10:54:08.935Z,1.85
2023-02-16T10:56:54.414Z,3.90
2023-02-16T10:59:31.882Z,2.92
2023-02-16T11:02:12.282Z,2.20
2023-02-16T11:04:47.751Z,2.20
2023-02-16T11:07:23.569Z,1.98
2023-02-16T11:10:02.091Z,2.02
2023-02-16T11:12:38.074Z,2.17
2023-02-16T11:15:24.271Z,2.37
2023-02-16T11:18:00.073Z,2.22
2023-02-16T11:20:36.916Z,2.15
2023-02-16T11:23:19.010Z,2.50
2023-02-16T11:25:59.563Z,18.87
2023-02-16T11:28:36.163Z,2.65
2023-02-16T11:31:19.033Z,3.83
2023-02-16T11:34:03.764Z,2.10
2023-02-16T11:36:39.606Z,2.60
2023-02-16T11:39:18.629Z,2.52
2023-02-16T11:41:55.177Z,1.95
2023-02-16T11:44:32.491Z,2.10
2023-02-16T11:47:09.143Z,2.37
2023-02-16T11:49:43.644Z,2.65
2023-02-16T11:55:27.810Z,2.60
2023-02-16T12:00:35.039Z,2.98
2023-02-16T12:03:21.823Z,2.42
2023-02-16T12:06:05.037Z,3.20
2023-02-16T12:08:49.372Z,2.42
2023-02-16T12:11:29.178Z,3.75
2023-02-16T12:14:11.667Z,2.95
2023-02-16T12:19:35.135Z,3.65
2023-02-16T12:22:19.545Z,2.80
2023-02-16T12:24:58.550Z,2.55
2023-02-16T12:27:34.814Z,2.58
2023-02-16T12:30:12.127Z,3.60
2023-02-16T12:32:58.056Z,2.52
2023-02-16T12:35:42.212Z,2.87
2023-02-16T12:38:22.624Z,2.37
2023-02-16T12:40:59.627Z,2.92
2023-02-16T12:43:38.483Z,2.13
2023-02-16T12:46:17.909Z,2.60
2023-02-16T12:48:54.431Z,2.58
2023-02-16T12:51:31.314Z,2.75
2023-02-16T12:54:09.429Z,2.20
2023-02-16T12:56:45.729Z,2.45
2023-02-16T12:59:22.917Z,2.22
2023-02-16T13:01:57.583Z,2.00
2023-02-16T13:04:33.978Z,2.50
2023-02-16T13:07:12.446Z,2.22
2023-02-16T13:09:50.486Z,2.35
2023-02-16T13:12:28.347Z,3.27
2023-02-16T13:17:41.642Z,2.10
2023-02-16T13:20:17.535Z,2.50
2023-02-16T13:23:11.297Z,2.72
2023-02-16T13:26:10.005Z,3.05
2023-02-16T13:28:55.900Z,3.52
2023-02-16T13:31:40.339Z,2.85
2023-02-16T13:34:48.041Z,3.12
2023-02-16T13:37:40.311Z,3.42
2023-02-16T13:40:42.534Z,3.00
2023-02-16T13:43:31.838Z,4.00
2023-02-16T13:46:09.600Z,3.37
2023-02-16T13:48:49.104Z,2.58
2023-02-16T13:51:24.905Z,2.92
2023-02-16T13:54:00.620Z,2.60
2023-02-16T13:56:38.899Z,3.05
2023-02-16T14:00:04.626Z,3.90
2023-02-16T14:02:58.696Z,3.40
2023-02-16T14:05:35.224Z,3.25
2023-02-16T14:08:24.316Z,4.65
2023-02-16T14:11:10.019Z,3.80
2023-02-16T14:13:51.767Z,4.60
2023-02-16T14:16:34.900Z,3.30
2023-02-16T14:19:20.509Z,4.65
2023-02-16T14:21:54.891Z,3.75
2023-02-16T14:24:34.140Z,3.27
2023-02-16T14:27:09.717Z,3.35
2023-02-16T14:29:46.199Z,3.80
2023-02-16T14:32:28.536Z,3.77
2023-02-16T14:35:08.353Z,3.92
2023-02-16T14:37:44.614Z,3.75
2023-02-16T14:40:24.067Z,3.80
2023-02-16T14:43:00.902Z,4.12
2023-02-16T14:46:00.034Z,3.37
2023-02-16T14:49:13.158Z,3.95
2023-02-16T14:55:43.732Z,5.60
2023-02-16T14:58:28.396Z,4.60
2023-02-16T15:01:07.643Z,4.65
2023-02-16T15:03:46.872Z,4.28
2023-02-16T15:06:27.901Z,4.65
2023-02-16T15:09:04.176Z,4.85
2023-02-16T15:11:41.893Z,4.92
2023-02-16T15:14:18.345Z,4.75
2023-02-16T15:16:53.434Z,4.47
2023-02-16T15:19:30.088Z,4.75
2023-02-16T15:22:22.863Z,3.95
2023-02-16T15:25:05.891Z,5.20
2023-02-16T15:27:39.438Z,5.17
2023-02-16T15:30:24.680Z,4.95
2023-02-16T15:33:00.847Z,5.22
2023-02-16T15:35:38.448Z,3.98
2023-02-16T15:38:22.312Z,5.00
2023-02-16T15:40:57.512Z,5.55
2023-02-16T15:43:34.643Z,5.00
2023-02-16T15:46:10.143Z,5.35
2023-02-16T15:48:44.067Z,5.20
2023-02-16T15:51:20.940Z,5.58
2023-02-16T15:53:57.693Z,5.43
2023-02-16T15:56:38.132Z,5.13
2023-02-16T15:59:35.317Z,5.28
2023-02-16T16:02:15.522Z,5.83
2023-02-16T16:04:54.697Z,5.15
2023-02-16T16:07:31.366Z,7.30
2023-02-16T16:10:07.392Z,5.92
2023-02-16T16:12:41.490Z,5.78
2023-02-16T16:15:22.159Z,6.33
2023-02-16T16:17:58.394Z,5.70
2023-02-16T16:23:28.537Z,6.80
2023-02-16T16:26:02.794Z,5.65
2023-02-16T16:28:38.202Z,6.00
2023-02-16T16:31:13.857Z,5.95
2023-02-16T16:33:58.746Z,7.47
2023-02-16T16:36:33.784Z,6.90
2023-02-16T16:39:17.271Z,7.10
2023-02-16T16:42:09.325Z,6.22
2023-02-16T16:44:45.475Z,6.62
2023-02-16T16:47:26.721Z,6.10
2023-02-16T16:50:01.950Z,6.12
2023-02-16T16:52:44.381Z,7.45
2023-02-16T16:55:33.235Z,6.50
2023-02-16T16:58:08.997Z,7.47
2023-02-16T17:00:43.920Z,5.78
2023-02-16T17:03:18.839Z,6.28
2023-02-16T17:05:52.438Z,7.05
2023-02-16T17:08:25.890Z,7.03
2023-02-16T17:10:59.795Z,6.22
2023-02-16T17:13:33.262Z,7.12
2023-02-16T17:16:08.686Z,7.35
2023-02-16T17:18:42.342Z,8.13
2023-02-16T17:21:17.210Z,5.95
2023-02-16T17:23:53.390Z,6.65
2023-02-16T17:26:26.814Z,7.22
2023-02-16T17:29:00.527Z,8.20
2023-02-16T17:31:34.097Z,6.97
2023-02-16T17:34:07.724Z,7.17
2023-02-16T17:36:41.196Z,7.20
2023-02-16T17:39:14.568Z,6.95
2023-02-16T17:41:47.676Z,6.25
2023-02-16T17:44:21.061Z,7.45
2023-02-16T17:46:55.809Z,8.78
2023-02-16T17:49:29.509Z,7.97
2023-02-16T17:52:02.880Z,7.85
2023-02-16T17:54:36.288Z,8.48
2023-02-16T17:57:11.359Z,8.53
2023-02-16T17:59:45.006Z,7.60
2023-02-16T18:02:18.638Z,8.70
2023-02-16T18:04:52.036Z,8.28
2023-02-16T18:07:25.482Z,9.00
2023-02-16T18:09:59.238Z,9.48
2023-02-16T18:12:34.333Z,8.45
2023-02-16T18:15:09.192Z,8.88
2023-02-16T18:17:42.892Z,8.10
2023-02-16T18:20:19.788Z,8.75
2023-02-16T18:22:53.146Z,7.45
2023-02-16T18:25:27.176Z,8.18
2023-02-16T18:28:01.177Z,7.87
2023-02-16T18:30:34.857Z,8.20
2023-02-16T18:33:08.626Z,6.87
2023-02-16T18:35:42.894Z,5.92
2023-02-16T18:38:16.641Z,9.23
2023-02-16T18:40:50.402Z,8.00
2023-02-16T18:43:24.422Z,8.83
2023-02-16T18:45:58.263Z,6.50
2023-02-16T18:48:31.743Z,7.62
2023-02-16T18:51:09.156Z,8.08
2023-02-16T18:53:42.532Z,7.45
2023-02-16T18:56:16.438Z,7.62
2023-02-16T18:58:49.945Z,6.33
2023-02-16T19:01:30.187Z,5.35
2023-02-16T19:04:05.446Z,7.17
2023-02-16T19:06:39.011Z,8.00
2023-02-16T19:09:12.343Z,7.75
2023-02-16T19:11:46.226Z,7.12
2023-02-16T19:14:19.853Z,7.83
2023-02-16T19:16:53.320Z,6.42
2023-02-16T19:19:26.552Z,5.50
2023-02-16T19:21:59.899Z,8.83
2023-02-16T19:24:35.148Z,8.53
2023-02-16T19:27:08.651Z,5.55
2023-02-16T19:29:42.751Z,7.33
2023-02-16T19:32:16.038Z,7.40
2023-02-16T19:34:49.563Z,5.72
2023-02-16T19:37:22.864Z,6.90
2023-02-16T19:39:56.640Z,8.30
2023-02-16T19:42:29.993Z,5.85
2023-02-16T19:45:04.066Z,7.60
2023-02-16T19:47:37.280Z,6.67
2023-02-16T19:50:11.984Z,5.40
2023-02-16T19:52:45.356Z,5.80
2023-02-16T19:55:18.900Z,6.28
2023-02-16T19:57:52.210Z,6.45
2023-02-16T20:00:26.259Z,7.80
2023-02-16T20:02:59.975Z,5.10
2023-02-16T20:05:33.649Z,6.05
2023-02-16T20:08:07.474Z,7.33
2023-02-16T20:10:43.997Z,6.35
2023-02-16T20:13:17.687Z,7.45
2023-02-16T20:15:51.185Z,7.30
2023-02-16T20:18:24.752Z,7.78
2023-02-16T20:21:02.196Z,7.72
2023-02-16T20:23:35.558Z,7.45
2023-02-16T20:26:11.384Z,7.90
2023-02-16T20:28:45.244Z,6.90
2023-02-16T20:31:20.874Z,6.08
2023-02-16T20:33:54.627Z,8.20
2023-02-16T20:36:28.532Z,7.60
2023-02-16T20:39:01.938Z,6.65
2023-02-16T20:41:35.661Z,6.62
2023-02-16T20:44:10.230Z,6.92
2023-02-16T20:46:44.038Z,6.45
2023-02-16T20:49:17.448Z,6.35
2023-02-16T20:51:50.827Z,8.75
2023-02-16T20:54:24.081Z,8.10
2023-02-16T20:56:57.540Z,7.35
2023-02-16T20:59:31.508Z,8.10
2023-02-16T21:02:05.287Z,8.15
2023-02-16T21:04:39.741Z,7.10
2023-02-16T21:07:13.057Z,7.60
2023-02-16T21:09:46.614Z,6.62
2023-02-16T21:12:20.052Z,7.50
2023-02-16T21:14:53.479Z,7.70
2023-02-16T21:17:26.871Z,8.78
2023-02-16T21:20:02.161Z,5.03
2023-02-16T21:22:35.734Z,7.55
2023-02-16T21:25:11.185Z,7.30
2023-02-16T21:27:44.540Z,7.85
2023-02-16T21:30:19.011Z,8.35
2023-02-16T21:32:53.549Z,7.83
2023-02-16T21:35:26.979Z,6.28
2023-02-16T21:38:00.535Z,7.78
2023-02-16T21:40:51.774Z,7.67
2023-02-16T21:43:25.402Z,7.85
2023-02-16T21:46:02.706Z,6.20
2023-02-16T21:48:48.683Z,8.48
2023-02-16T21:51:24.916Z,7.37
2023-02-16T21:53:58.627Z,7.75
2023-02-16T21:56:38.123Z,7.33
2023-02-16T21:59:14.063Z,7.75
2023-02-16T22:01:51.329Z,6.83
2023-02-16T22:04:26.454Z,6.80
2023-02-16T22:06:59.664Z,5.55
2023-02-16T22:09:33.233Z,6.95
2023-02-16T22:12:06.925Z,7.00
2023-02-16T22:14:40.265Z,8.35
2023-02-16T22:17:13.634Z,7.60
2023-02-16T22:19:48.626Z,7.83
2023-02-16T22:22:21.713Z,9.00
2023-02-16T22:24:54.954Z,7.83
2023-02-16T22:27:28.319Z,8.70
2023-02-16T22:30:01.555Z,7.90
2023-02-16T22:32:36.468Z,8.70
2023-02-16T22:35:10.798Z,8.55
2023-02-16T22:37:44.354Z,7.42
2023-02-16T22:40:18.233Z,7.83
2023-02-16T22:42:51.283Z,7.08
2023-02-16T22:45:24.981Z,6.10
2023-02-16T22:47:58.759Z,7.75
2023-02-16T22:50:32.320Z,4.35
2023-02-16T22:53:05.891Z,5.17
2023-02-16T22:55:40.704Z,6.22
2023-02-16T22:58:14.176Z,6.62
2023-02-16T23:00:48.933Z,7.90
2023-02-16T23:03:22.533Z,6.35
2023-02-16T23:05:56.443Z,9.48
2023-02-16T23:08:30.017Z,7.17
2023-02-16T23:11:05.899Z,7.45
2023-02-16T23:13:39.731Z,7.53
2023-02-16T23:16:15.725Z,7.55
2023-02-16T23:18:49.267Z,7.40
2023-02-16T23:21:23.850Z,4.78
2023-02-16T23:23:58.222Z,6.30
2023-02-16T23:26:33.811Z,6.33
2023-02-16T23:29:08.200Z,7.15
2023-02-16T23:31:44.505Z,8.10
2023-02-16T23:34:18.611Z,6.83
2023-02-16T23:36:51.992Z,6.37
2023-02-16T23:39:25.655Z,7.67
2023-02-16T23:41:59.361Z,7.58
2023-02-16T23:44:32.795Z,6.35
2023-02-16T23:47:06.457Z,5.95
2023-02-16T23:49:40.014Z,7.37
2023-02-16T23:52:13.482Z,6.47
2023-02-16T23:54:47.055Z,7.72
2023-02-16T23:57:20.692Z,5.12
2023-02-16T23:59:54.016Z,7.65
